createdAt,value
2018-11-10T00:00:38.398Z,101855.91
2018-11-10T00:01:41.343Z,101853.61
2018-11-10T00:02:44.023Z,101856.87
2018-11-10T00:03:46.690Z,101858.11
2018-11-10T00:04:49.338Z,101856.28
2018-11-10T00:05:52.006Z,101856.78
2018-11-10T00:06:54.680Z,101855.91
2018-11-10T00:07:57.379Z,101856.78
2018-11-10T00:09:00.022Z,101855.91
2018-11-10T00:10:02.754Z,101854.95
2018-11-10T00:11:05.507Z,101857.98
2018-11-10T00:12:08.534Z,101854.48
2018-11-10T00:13:11.179Z,101853.52
2018-11-10T00:14:13.850Z,101854.85
2018-11-10T00:15:16.518Z,101858.86
2018-11-10T00:16:19.180Z,101856.66
2018-11-10T00:17:22.138Z,101848.64
2018-11-10T00:18:24.790Z,101850.35
2018-11-10T00:19:27.450Z,101857.89
2018-11-10T00:20:30.102Z,101853.89
2018-11-10T00:21:32.765Z,101851.22
2018-11-10T00:22:36.026Z,101855.69
2018-11-10T00:23:38.721Z,101854.27
2018-11-10T00:24:41.370Z,101847.68
2018-11-10T00:25:44.034Z,101844.92
2018-11-10T00:26:46.728Z,101848.05
2018-11-10T00:27:49.686Z,101845.88
2018-11-10T00:28:52.326Z,101847.22
2018-11-10T00:29:55.058Z,101849.30
2018-11-10T00:30:57.710Z,101838.09
2018-11-10T00:32:00.374Z,101842.72
2018-11-10T00:33:03.295Z,101841.38
2018-11-10T00:34:05.974Z,101835.20
2018-11-10T00:35:08.914Z,101840.55
2018-11-10T00:36:11.623Z,101835.67
2018-11-10T00:37:14.289Z,101838.34
2018-11-10T00:38:17.306Z,101844.05
2018-11-10T00:39:19.962Z,101841.01
2018-11-10T00:40:22.714Z,101847.22
2018-11-10T00:41:25.378Z,101840.17
2018-11-10T00:42:28.312Z,101837.88
2018-11-10T00:43:31.286Z,101845.38
2018-11-10T00:44:33.973Z,101841.51
2018-11-10T00:45:36.634Z,101846.84
2018-11-10T00:46:39.333Z,101845.88
2018-11-10T00:47:42.034Z,101850.84
2018-11-10T00:48:44.990Z,101846.34
2018-11-10T00:49:47.690Z,101852.19
2018-11-10T00:50:50.394Z,101853.98
2018-11-10T00:51:53.058Z,101846.94
2018-11-10T00:52:55.746Z,101850.48
2018-11-10T00:53:58.702Z,101844.27
2018-11-10T00:55:08.350Z,101848.27
2018-11-10T00:56:11.002Z,101845.98
2018-11-10T00:57:13.662Z,101845.14
2018-11-10T00:58:16.346Z,101842.47
2018-11-10T00:59:19.770Z,101844.27
2018-11-10T01:00:22.423Z,101843.31
2018-11-10T01:01:25.075Z,101840.27
2018-11-10T01:02:27.791Z,101844.64
2018-11-10T01:03:30.551Z,101842.94
2018-11-10T01:04:33.243Z,101812.49
2018-11-10T01:05:35.972Z,101838.09
2018-11-10T01:06:38.628Z,101840.77
2018-11-10T01:07:41.630Z,101836.77
2018-11-10T01:08:44.275Z,101835.43
2018-11-10T01:09:47.290Z,101839.80
2018-11-10T01:10:49.946Z,101840.77
2018-11-10T01:11:52.606Z,101840.77
2018-11-10T01:12:55.249Z,101835.06
2018-11-10T01:13:57.894Z,101831.05
2018-11-10T01:15:00.842Z,101832.39
2018-11-10T01:16:03.502Z,101831.05
2018-11-10T01:17:07.034Z,101829.35
2018-11-10T01:18:09.679Z,101830.19
2018-11-10T01:19:12.324Z,101830.31
2018-11-10T01:20:15.287Z,101826.68
2018-11-10T01:21:17.931Z,101837.73
2018-11-10T01:22:20.587Z,101828.85
2018-11-10T01:23:23.230Z,101835.06
2018-11-10T01:24:25.915Z,101829.35
2018-11-10T01:25:28.838Z,101831.16
2018-11-10T01:26:31.510Z,101835.52
2018-11-10T01:27:34.440Z,101834.69
2018-11-10T01:28:37.089Z,101832.02
2018-11-10T01:29:39.758Z,101839.53
2018-11-10T01:30:42.394Z,101828.48
2018-11-10T01:31:45.074Z,101831.16
2018-11-10T01:32:47.735Z,101819.14
2018-11-10T01:33:50.386Z,101826.68
2018-11-10T01:34:53.030Z,101821.34
2018-11-10T01:35:55.961Z,101812.97
2018-11-10T01:36:58.628Z,101811.63
2018-11-10T01:38:01.287Z,101815.14
2018-11-10T01:39:07.830Z,101814.67
2018-11-10T01:40:11.846Z,101804.97
2018-11-10T01:41:14.782Z,101811.04
2018-11-10T01:42:17.430Z,101808.97
2018-11-10T01:43:20.079Z,101812.97
2018-11-10T01:44:22.722Z,101811.63
2018-11-10T01:45:25.394Z,101813.80
2018-11-10T01:46:28.062Z,101819.64
2018-11-10T01:47:30.716Z,101824.48
2018-11-10T01:48:33.367Z,101822.31
2018-11-10T01:49:36.049Z,101819.64
2018-11-10T01:50:38.729Z,101814.77
2018-11-10T01:51:41.715Z,101818.30
2018-11-10T01:52:44.367Z,101815.64
2018-11-10T01:53:47.023Z,101817.44
2018-11-10T01:54:49.690Z,101817.44
2018-11-10T01:55:52.347Z,101814.30
2018-11-10T01:56:55.367Z,101815.64
2018-11-10T01:57:58.034Z,101825.94
2018-11-10T01:59:00.682Z,101816.10
2018-11-10T02:00:04.102Z,101820.60
2018-11-10T02:01:06.773Z,101813.94
2018-11-10T02:02:09.558Z,101815.64
2018-11-10T02:03:12.206Z,101815.64
2018-11-10T02:04:14.850Z,101815.64
2018-11-10T02:05:17.744Z,101811.63
2018-11-10T02:06:20.458Z,101809.43
2018-11-10T02:07:23.486Z,101810.30
2018-11-10T02:08:26.146Z,101812.10
2018-11-10T02:09:28.794Z,101812.59
2018-11-10T02:10:31.443Z,101812.97
2018-11-10T02:11:34.094Z,101813.06
2018-11-10T02:12:37.138Z,101816.59
2018-11-10T02:13:39.893Z,101808.23
2018-11-10T02:14:42.551Z,101810.02
2018-11-10T02:15:45.200Z,101810.77
2018-11-10T02:16:47.857Z,101810.39
2018-11-10T02:17:50.526Z,101812.23
2018-11-10T02:18:53.355Z,101809.56
2018-11-10T02:19:56.010Z,101807.73
2018-11-10T02:20:58.734Z,101805.93
2018-11-10T02:22:01.383Z,101795.05
2018-11-10T02:23:04.642Z,101807.73
2018-11-10T02:24:07.282Z,101802.39
2018-11-10T02:25:10.881Z,101802.39
2018-11-10T02:26:13.615Z,101805.43
2018-11-10T02:27:22.328Z,101801.92
2018-11-10T02:28:24.986Z,101798.76
2018-11-10T02:29:27.726Z,101801.92
2018-11-10T02:30:30.382Z,101804.22
2018-11-10T02:31:33.042Z,101800.22
2018-11-10T02:32:35.694Z,101805.43
2018-11-10T02:33:38.638Z,101805.56
2018-11-10T02:34:41.289Z,101801.55
2018-11-10T02:35:43.933Z,101794.88
2018-11-10T02:36:46.586Z,101804.22
2018-11-10T02:37:49.233Z,101804.59
2018-11-10T02:38:52.252Z,101799.25
2018-11-10T02:39:54.880Z,101800.59
2018-11-10T02:40:57.543Z,101803.26
2018-11-10T02:42:00.198Z,101800.59
2018-11-10T02:43:02.832Z,101800.22
2018-11-10T02:44:06.050Z,101807.27
2018-11-10T02:45:10.184Z,101797.92
2018-11-10T02:46:12.818Z,101806.89
2018-11-10T02:47:15.450Z,101798.89
2018-11-10T02:48:18.138Z,101803.72
2018-11-10T02:49:21.094Z,101801.92
2018-11-10T02:50:23.734Z,101799.25
2018-11-10T02:51:26.403Z,101801.05
2018-11-10T02:52:29.068Z,101800.59
2018-11-10T02:53:31.720Z,101802.89
2018-11-10T02:54:34.748Z,101807.27
2018-11-10T02:55:37.474Z,101815.27
2018-11-10T02:56:40.120Z,101811.27
2018-11-10T02:57:42.876Z,101803.35
2018-11-10T02:58:45.538Z,101808.23
2018-11-10T02:59:48.246Z,101803.26
2018-11-10T03:00:50.914Z,101806.89
2018-11-10T03:01:53.590Z,101808.59
2018-11-10T03:02:56.234Z,101807.73
2018-11-10T03:03:58.877Z,101808.59
2018-11-10T03:05:01.834Z,101816.23
2018-11-10T03:06:04.614Z,101809.06
2018-11-10T03:07:07.274Z,101822.41
2018-11-10T03:08:09.947Z,101810.89
2018-11-10T03:09:12.606Z,101817.06
2018-11-10T03:10:15.247Z,101808.23
2018-11-10T03:11:17.913Z,101817.56
2018-11-10T03:12:20.590Z,101810.39
2018-11-10T03:13:23.240Z,101812.23
2018-11-10T03:14:25.896Z,101811.86
2018-11-10T03:15:28.826Z,101821.44
2018-11-10T03:16:31.597Z,101823.73
2018-11-10T03:17:34.208Z,101816.59
2018-11-10T03:18:36.870Z,101814.03
2018-11-10T03:19:39.762Z,101817.06
2018-11-10T03:20:43.660Z,101818.90
2018-11-10T03:21:46.327Z,101812.59
2018-11-10T03:22:48.990Z,101815.73
2018-11-10T03:23:51.674Z,101816.59
2018-11-10T03:24:54.331Z,101814.77
2018-11-10T03:25:57.361Z,101811.27
2018-11-10T03:27:00.024Z,101811.73
2018-11-10T03:28:02.677Z,101816.10
2018-11-10T03:29:05.586Z,101811.27
2018-11-10T03:30:08.526Z,101814.77
2018-11-10T03:31:11.444Z,101810.89
2018-11-10T03:32:14.088Z,101817.94
2018-11-10T03:33:16.741Z,101810.02
2018-11-10T03:34:19.401Z,101808.59
2018-11-10T03:35:22.055Z,101811.27
2018-11-10T03:36:25.074Z,101809.06
2018-11-10T03:37:27.723Z,101809.93
2018-11-10T03:38:30.374Z,101806.39
2018-11-10T03:39:33.014Z,101801.92
2018-11-10T03:40:35.650Z,101801.92
2018-11-10T03:41:38.742Z,101802.89
2018-11-10T03:42:41.406Z,101798.39
2018-11-10T03:43:44.050Z,101806.30
2018-11-10T03:44:46.702Z,101797.55
2018-11-10T03:45:49.338Z,101805.06
2018-11-10T03:46:52.270Z,101798.89
2018-11-10T03:47:54.914Z,101801.55
2018-11-10T03:48:57.586Z,101802.02
2018-11-10T03:50:00.242Z,101801.55
2018-11-10T03:51:02.956Z,101810.02
2018-11-10T03:52:05.881Z,101802.89
2018-11-10T03:53:08.546Z,101804.69
2018-11-10T03:54:11.190Z,101810.39
2018-11-10T03:55:13.831Z,101806.89
2018-11-10T03:56:16.485Z,101805.06
2018-11-10T03:57:19.394Z,101802.89
2018-11-10T03:58:22.067Z,101804.22
2018-11-10T03:59:24.719Z,101801.55
2018-11-10T04:00:27.367Z,101801.55
2018-11-10T04:01:30.046Z,101798.52
2018-11-10T04:02:33.062Z,101795.25
2018-11-10T04:03:35.702Z,101800.59
2018-11-10T04:04:38.339Z,101792.68
2018-11-10T04:05:41.022Z,101790.38
2018-11-10T04:06:43.686Z,101790.02
2018-11-10T04:07:46.722Z,101789.55
2018-11-10T04:08:49.434Z,101791.72
2018-11-10T04:09:52.096Z,101788.58
2018-11-10T04:10:54.734Z,101788.21
2018-11-10T04:11:57.405Z,101791.25
2018-11-10T04:13:00.342Z,101789.55
2018-11-10T04:14:03.012Z,101784.20
2018-11-10T04:15:05.750Z,101781.05
2018-11-10T04:16:08.414Z,101782.37
2018-11-10T04:17:11.055Z,101759.72
2018-11-10T04:18:13.969Z,101781.54
2018-11-10T04:19:16.616Z,101781.54
2018-11-10T04:20:19.286Z,101782.00
2018-11-10T04:21:21.938Z,101778.00
2018-11-10T04:22:31.841Z,101774.87
2018-11-10T04:23:34.763Z,101774.50
2018-11-10T04:24:37.406Z,101767.83
2018-11-10T04:25:40.063Z,101773.53
2018-11-10T04:26:42.714Z,101766.49
2018-11-10T04:27:45.358Z,101770.00
2018-11-10T04:28:47.999Z,101763.83
2018-11-10T04:29:50.647Z,101767.33
2018-11-10T04:30:53.286Z,101774.87
2018-11-10T04:31:55.965Z,101763.83
2018-11-10T04:32:58.610Z,101769.16
2018-11-10T04:34:01.262Z,101766.49
2018-11-10T04:35:04.202Z,101768.66
2018-11-10T04:36:06.830Z,101767.83
2018-11-10T04:37:09.462Z,101761.53
2018-11-10T04:38:12.105Z,101761.98
2018-11-10T04:39:15.033Z,101761.16
2018-11-10T04:40:17.670Z,101763.83
2018-11-10T04:41:20.310Z,101761.63
2018-11-10T04:42:22.958Z,101759.32
2018-11-10T04:43:25.678Z,101768.29
2018-11-10T04:44:28.606Z,101764.79
2018-11-10T04:45:31.251Z,101760.78
2018-11-10T04:46:33.906Z,101760.29
2018-11-10T04:47:36.697Z,101758.12
2018-11-10T04:48:39.355Z,101762.12
2018-11-10T04:49:42.373Z,101758.12
2018-11-10T04:50:45.058Z,101759.45
2018-11-10T04:51:47.704Z,101757.75
2018-11-10T04:52:50.339Z,101760.78
2018-11-10T04:53:52.978Z,101760.78
2018-11-10T04:54:56.019Z,101766.49
2018-11-10T04:55:58.672Z,101768.79
2018-11-10T04:57:01.318Z,101762.95
2018-11-10T04:58:04.045Z,101762.22
2018-11-10T04:59:06.694Z,101760.78
2018-11-10T05:00:12.215Z,101755.08
2018-11-10T05:01:14.909Z,101758.12
2018-11-10T05:02:17.550Z,101757.75
2018-11-10T05:03:20.203Z,101755.08
2018-11-10T05:04:22.855Z,101759.08
2018-11-10T05:05:25.626Z,101766.13
2018-11-10T05:06:28.262Z,101767.09
2018-11-10T05:07:30.900Z,101760.05
2018-11-10T05:08:33.562Z,101758.71
2018-11-10T05:09:36.197Z,101764.05
2018-11-10T05:10:38.839Z,101763.55
2018-11-10T05:11:41.471Z,101760.42
2018-11-10T05:12:44.111Z,101762.22
2018-11-10T05:13:46.774Z,101764.42
2018-11-10T05:14:49.422Z,101766.22
2018-11-10T05:15:52.062Z,101766.13
2018-11-10T05:16:54.728Z,101766.13
2018-11-10T05:17:57.368Z,101764.79
2018-11-10T05:19:00.001Z,101770.13
2018-11-10T05:20:02.698Z,101765.16
2018-11-10T05:21:05.690Z,101763.45
2018-11-10T05:22:08.542Z,101769.16
2018-11-10T05:23:11.192Z,101771.83
2018-11-10T05:24:14.014Z,101773.16
2018-11-10T05:25:16.670Z,101767.23
2018-11-10T05:26:19.668Z,101761.53
2018-11-10T05:27:22.314Z,101765.16
2018-11-10T05:28:24.961Z,101773.03
2018-11-10T05:29:27.602Z,101772.20
2018-11-10T05:30:30.255Z,101777.41
2018-11-10T05:31:33.222Z,101768.20
2018-11-10T05:32:35.882Z,101773.91
2018-11-10T05:33:38.509Z,101776.57
2018-11-10T05:34:41.162Z,101781.91
2018-11-10T05:35:43.826Z,101775.70
2018-11-10T05:36:46.765Z,101777.91
2018-11-10T05:37:49.418Z,101781.05
2018-11-10T05:38:52.054Z,101784.58
2018-11-10T05:39:54.698Z,101785.91
2018-11-10T05:40:57.351Z,101777.91
2018-11-10T05:42:00.310Z,101783.24
2018-11-10T05:43:02.964Z,101782.28
2018-11-10T05:44:06.290Z,101786.28
2018-11-10T05:45:09.434Z,101783.11
2018-11-10T05:46:12.071Z,101780.08
2018-11-10T05:47:15.029Z,101783.61
2018-11-10T05:48:17.671Z,101785.41
2018-11-10T05:49:20.314Z,101781.91
2018-11-10T05:50:22.962Z,101783.61
2018-11-10T05:51:25.614Z,101782.74
2018-11-10T05:52:28.638Z,101778.73
2018-11-10T05:53:31.310Z,101784.58
2018-11-10T05:54:33.950Z,101782.28
2018-11-10T05:55:36.618Z,101782.28
2018-11-10T05:56:39.322Z,101778.38
2018-11-10T05:57:41.970Z,101777.04
2018-11-10T05:58:44.598Z,101778.73
2018-11-10T05:59:47.254Z,101774.38
2018-11-10T06:00:49.921Z,101767.33
2018-11-10T06:01:52.564Z,101757.78
2018-11-10T06:02:55.246Z,101780.58
2018-11-10T06:03:57.870Z,101778.87
2018-11-10T06:05:00.502Z,101777.53
2018-11-10T06:06:03.202Z,101779.34
2018-11-10T06:07:05.856Z,101778.13
2018-11-10T06:08:08.811Z,101777.17
2018-11-10T06:09:11.480Z,101779.84
2018-11-10T06:10:14.319Z,101782.87
2018-11-10T06:11:16.822Z,101774.00
2018-11-10T06:12:19.474Z,101781.54
2018-11-10T06:13:22.393Z,101782.87
2018-11-10T06:14:25.034Z,101782.87
2018-11-10T06:15:27.679Z,101789.41
2018-11-10T06:16:30.330Z,101789.32
2018-11-10T06:17:32.982Z,101787.39
2018-11-10T06:18:35.952Z,101786.80
2018-11-10T06:19:38.646Z,101778.66
2018-11-10T06:20:41.308Z,101786.01
2018-11-10T06:21:43.956Z,101781.41
2018-11-10T06:22:46.598Z,101780.45
2018-11-10T06:23:49.546Z,101786.52
2018-11-10T06:24:52.198Z,101787.77
2018-11-10T06:25:54.907Z,101785.46
2018-11-10T06:26:57.574Z,101784.00
2018-11-10T06:28:00.238Z,101784.36
2018-11-10T06:29:03.171Z,101790.08
2018-11-10T06:30:07.638Z,101787.77
2018-11-10T06:31:10.315Z,101793.48
2018-11-10T06:32:12.957Z,101788.14
2018-11-10T06:33:15.601Z,101788.52
2018-11-10T06:34:18.568Z,101785.38
2018-11-10T06:35:21.202Z,101790.22
2018-11-10T06:36:23.859Z,101789.75
2018-11-10T06:37:26.586Z,101791.92
2018-11-10T06:38:29.262Z,101788.41
2018-11-10T06:39:32.186Z,101791.09
2018-11-10T06:40:34.838Z,101790.59
2018-11-10T06:41:37.574Z,101791.09
2018-11-10T06:42:40.667Z,101789.25
2018-11-10T06:43:43.354Z,101792.42
2018-11-10T06:44:46.376Z,101790.59
2018-11-10T06:45:49.033Z,101791.45
2018-11-10T06:46:51.692Z,101794.59
2018-11-10T06:47:54.378Z,101793.25
2018-11-10T06:48:57.060Z,101795.55
2018-11-10T06:50:00.011Z,101800.43
2018-11-10T06:51:02.658Z,101802.23
2018-11-10T06:52:05.422Z,101793.85
2018-11-10T06:53:08.075Z,101793.85
2018-11-10T06:54:10.743Z,101800.89
2018-11-10T06:55:13.782Z,101800.06
2018-11-10T06:56:16.418Z,101803.20
2018-11-10T06:57:19.175Z,101798.82
2018-11-10T06:58:21.871Z,101802.83
2018-11-10T06:59:24.506Z,101798.82
2018-11-10T07:00:27.534Z,101799.79
2018-11-10T07:01:30.266Z,101799.32
2018-11-10T07:02:32.903Z,101798.95
2018-11-10T07:03:35.586Z,101801.62
2018-11-10T07:04:38.226Z,101801.62
2018-11-10T07:05:41.191Z,101796.28
2018-11-10T07:06:43.823Z,101798.08
2018-11-10T07:07:46.466Z,101800.75
2018-11-10T07:08:49.164Z,101801.12
2018-11-10T07:09:51.814Z,101801.12
2018-11-10T07:10:54.838Z,101799.79
2018-11-10T07:11:57.489Z,101796.16
2018-11-10T07:13:00.154Z,101801.03
2018-11-10T07:14:02.823Z,101798.82
2018-11-10T07:15:06.618Z,101804.53
2018-11-10T07:16:09.590Z,101799.19
2018-11-10T07:17:12.267Z,101800.53
2018-11-10T07:18:15.064Z,101799.19
2018-11-10T07:19:17.635Z,101801.86
2018-11-10T07:20:20.302Z,101792.14
2018-11-10T07:21:23.369Z,101799.19
2018-11-10T07:22:26.006Z,101791.68
2018-11-10T07:23:28.650Z,101791.68
2018-11-10T07:24:31.316Z,101794.45
2018-11-10T07:25:33.970Z,101793.98
2018-11-10T07:26:36.618Z,101797.98
2018-11-10T07:27:39.257Z,101795.78
2018-11-10T07:28:42.095Z,101794.45
2018-11-10T07:29:44.751Z,101800.28
2018-11-10T07:30:47.388Z,101793.11
2018-11-10T07:31:50.091Z,101797.12
2018-11-10T07:32:52.751Z,101804.30
2018-11-10T07:33:55.438Z,101797.34
2018-11-10T07:34:58.086Z,101803.05
2018-11-10T07:36:00.730Z,101796.37
2018-11-10T07:37:03.670Z,101803.05
2018-11-10T07:38:06.390Z,101797.84
2018-11-10T07:39:09.896Z,101806.69
2018-11-10T07:40:12.954Z,101797.94
2018-11-10T07:41:15.610Z,101799.64
2018-11-10T07:42:18.581Z,101799.27
2018-11-10T07:43:21.255Z,101804.61
2018-11-10T07:44:23.915Z,101806.81
2018-11-10T07:45:26.565Z,101809.48
2018-11-10T07:46:29.234Z,101808.62
2018-11-10T07:47:32.233Z,101801.94
2018-11-10T07:48:34.872Z,101799.77
2018-11-10T07:49:37.512Z,101797.10
2018-11-10T07:50:40.158Z,101803.64
2018-11-10T07:51:42.814Z,101800.98
2018-11-10T07:52:45.739Z,101796.14
2018-11-10T07:53:48.410Z,101800.98
2018-11-10T07:54:51.072Z,101792.97
2018-11-10T07:55:53.817Z,101803.19
2018-11-10T07:56:56.474Z,101801.84
2018-11-10T07:57:59.438Z,101801.34
2018-11-10T07:59:02.099Z,101801.84
2018-11-10T08:00:07.324Z,101801.34
2018-11-10T08:01:09.986Z,101802.69
2018-11-10T08:02:12.669Z,101801.84
2018-11-10T08:03:15.642Z,101804.98
2018-11-10T08:04:18.295Z,101804.02
2018-11-10T08:05:20.971Z,101799.64
2018-11-10T08:06:23.622Z,101807.19
2018-11-10T08:07:26.273Z,101803.64
2018-11-10T08:08:28.920Z,101795.87
2018-11-10T08:09:31.593Z,101804.98
2018-11-10T08:10:34.250Z,101800.61
2018-11-10T08:11:36.950Z,101800.98
2018-11-10T08:12:39.686Z,101802.31
2018-11-10T08:13:42.642Z,101800.61
2018-11-10T08:14:45.286Z,101800.61
2018-11-10T08:15:47.962Z,101798.44
2018-11-10T08:16:50.619Z,101799.27
2018-11-10T08:17:53.282Z,101803.28
2018-11-10T08:18:56.194Z,101803.28
2018-11-10T08:19:58.822Z,101797.10
2018-11-10T08:21:01.455Z,101798.91
2018-11-10T08:22:04.187Z,101790.25
2018-11-10T08:23:06.831Z,101798.16
2018-11-10T08:24:09.842Z,101793.20
2018-11-10T08:25:13.690Z,101797.20
2018-11-10T08:26:16.285Z,101798.06
2018-11-10T08:27:19.165Z,101794.53
2018-11-10T08:28:21.815Z,101791.86
2018-11-10T08:29:24.824Z,101794.66
2018-11-10T08:30:27.616Z,101796.46
2018-11-10T08:31:30.294Z,101798.16
2018-11-10T08:32:32.938Z,101802.67
2018-11-10T08:33:35.578Z,101802.67
2018-11-10T08:34:38.514Z,101805.80
2018-11-10T08:35:41.175Z,101799.13
2018-11-10T08:36:43.838Z,101793.42
2018-11-10T08:37:46.479Z,101801.43
2018-11-10T08:38:49.122Z,101800.09
2018-11-10T08:39:52.058Z,101799.72
2018-11-10T08:40:54.730Z,101804.56
2018-11-10T08:41:57.378Z,101807.23
2018-11-10T08:43:00.027Z,101803.23
2018-11-10T08:44:02.700Z,101803.73
2018-11-10T08:45:07.024Z,101806.86
2018-11-10T08:46:09.681Z,101810.77
2018-11-10T08:47:12.343Z,101806.40
2018-11-10T08:48:15.070Z,101801.43
2018-11-10T08:49:17.761Z,101804.56
2018-11-10T08:50:20.422Z,101801.89
2018-11-10T08:51:23.078Z,101802.77
2018-11-10T08:52:25.730Z,101804.09
2018-11-10T08:53:28.378Z,101802.77
2018-11-10T08:54:31.054Z,101794.76
2018-11-10T08:55:33.998Z,101793.89
2018-11-10T08:56:36.655Z,101797.42
2018-11-10T08:57:39.699Z,101789.78
2018-11-10T08:58:42.341Z,101785.78
2018-11-10T08:59:44.998Z,101796.92
2018-11-10T09:00:47.662Z,101788.09
2018-11-10T09:01:50.552Z,101785.87
2018-11-10T09:02:53.210Z,101794.76
2018-11-10T09:03:55.879Z,101787.22
2018-11-10T09:04:58.526Z,101791.22
2018-11-10T09:06:01.503Z,101791.34
2018-11-10T09:07:04.202Z,101785.51
2018-11-10T09:08:06.874Z,101787.72
2018-11-10T09:09:10.315Z,101786.01
2018-11-10T09:10:13.775Z,101791.72
2018-11-10T09:11:16.699Z,101788.67
2018-11-10T09:12:19.353Z,101786.84
2018-11-10T09:13:22.003Z,101788.67
2018-11-10T09:14:24.644Z,101787.34
2018-11-10T09:15:27.308Z,101789.14
2018-11-10T09:16:30.243Z,101792.31
2018-11-10T09:17:32.945Z,101793.65
2018-11-10T09:18:35.570Z,101801.06
2018-11-10T09:19:38.261Z,101802.09
2018-11-10T09:20:40.923Z,101797.52
2018-11-10T09:21:43.984Z,101804.47
2018-11-10T09:22:46.579Z,101806.91
2018-11-10T09:23:49.215Z,101807.42
2018-11-10T09:24:51.878Z,101805.64
2018-11-10T09:25:54.543Z,101805.59
2018-11-10T09:26:57.540Z,101804.62
2018-11-10T09:28:00.187Z,101803.20
2018-11-10T09:29:02.882Z,101799.97
2018-11-10T09:30:06.298Z,101808.39
2018-11-10T09:31:08.931Z,101806.16
2018-11-10T09:32:11.574Z,101806.80
2018-11-10T09:33:14.230Z,101803.84
2018-11-10T09:34:16.882Z,101808.77
2018-11-10T09:35:19.536Z,101800.63
2018-11-10T09:36:22.245Z,101797.36
2018-11-10T09:37:25.155Z,101799.29
2018-11-10T09:38:27.814Z,101788.72
2018-11-10T09:39:30.478Z,101790.64
2018-11-10T09:40:33.136Z,101784.73
2018-11-10T09:41:36.183Z,101780.45
2018-11-10T09:42:39.336Z,101779.89
2018-11-10T09:43:41.955Z,101785.70
2018-11-10T09:44:44.610Z,101784.20
2018-11-10T09:45:47.259Z,101777.84
2018-11-10T09:46:49.918Z,101779.31
2018-11-10T09:47:52.582Z,101782.59
2018-11-10T09:48:55.230Z,101777.09
2018-11-10T09:49:57.984Z,101788.06
2018-11-10T09:51:00.728Z,101784.03
2018-11-10T09:52:03.358Z,101780.99
2018-11-10T09:53:06.028Z,101788.67
2018-11-10T09:54:08.666Z,101788.67
2018-11-10T09:55:11.470Z,101785.28
2018-11-10T09:56:14.126Z,101785.39
2018-11-10T09:57:16.794Z,101784.31
2018-11-10T09:58:19.754Z,101789.43
2018-11-10T09:59:22.412Z,101782.95
2018-11-10T10:00:25.066Z,101783.73
2018-11-10T10:01:27.825Z,101788.01
2018-11-10T10:02:30.680Z,101783.73
2018-11-10T10:03:33.653Z,101789.36
2018-11-10T10:04:36.326Z,101784.26
2018-11-10T10:05:38.982Z,101785.97
2018-11-10T10:06:41.657Z,101786.23
2018-11-10T10:07:44.747Z,101790.51
2018-11-10T10:08:47.711Z,101787.73
2018-11-10T10:09:50.378Z,101792.00
2018-11-10T10:10:53.062Z,101792.77
2018-11-10T10:11:55.698Z,101793.13
2018-11-10T10:12:58.368Z,101794.22
2018-11-10T10:14:01.425Z,101790.97
2018-11-10T10:15:04.721Z,101791.58
2018-11-10T10:16:07.437Z,101791.69
2018-11-10T10:17:10.101Z,101793.03
2018-11-10T10:18:12.754Z,101792.05
2018-11-10T10:19:15.790Z,101788.76
2018-11-10T10:20:19.415Z,101783.40
2018-11-10T10:21:22.059Z,101782.92
2018-11-10T10:22:24.752Z,101780.25
2018-11-10T10:23:27.402Z,101781.23
2018-11-10T10:24:30.363Z,101780.00
2018-11-10T10:25:33.001Z,101782.31
2018-11-10T10:26:35.638Z,101780.61
2018-11-10T10:27:38.314Z,101778.19
2018-11-10T10:28:41.007Z,101781.02
2018-11-10T10:29:44.014Z,101780.77
2018-11-10T10:30:46.667Z,101783.22
2018-11-10T10:31:49.319Z,101782.97
2018-11-10T10:32:51.986Z,101784.06
2018-11-10T10:33:54.657Z,101778.48
2018-11-10T10:34:57.915Z,101778.73
2018-11-10T10:36:00.559Z,101778.98
2018-11-10T10:37:03.214Z,101777.65
2018-11-10T10:38:05.982Z,101776.56
2018-11-10T10:39:09.161Z,101779.85
2018-11-10T10:40:12.927Z,101780.10
2018-11-10T10:41:15.578Z,101773.99
2018-11-10T10:42:18.235Z,101778.59
2018-11-10T10:43:20.898Z,101779.70
2018-11-10T10:44:23.534Z,101784.80
2018-11-10T10:45:26.502Z,101784.95
2018-11-10T10:46:29.156Z,101775.32
2018-11-10T10:47:31.820Z,101779.95
2018-11-10T10:48:34.640Z,101781.54
2018-11-10T10:49:37.175Z,101781.17
2018-11-10T10:50:40.091Z,101782.66
2018-11-10T10:51:42.748Z,101777.05
2018-11-10T10:52:45.500Z,101778.12
2018-11-10T10:53:48.155Z,101775.95
2018-11-10T10:54:50.811Z,101783.25
2018-11-10T10:55:53.784Z,101777.65
2018-11-10T10:56:56.458Z,101787.52
2018-11-10T10:57:59.131Z,101782.63
2018-11-10T10:59:01.796Z,101790.66
2018-11-10T11:00:09.268Z,101783.50
2018-11-10T11:01:17.412Z,101793.70
2018-11-10T11:02:25.574Z,101795.04
2018-11-10T11:03:33.802Z,101784.34
2018-11-10T11:04:42.021Z,101793.23
2018-11-10T11:05:51.198Z,101791.89
2018-11-10T11:06:53.854Z,101785.20
2018-11-10T11:07:56.514Z,101796.75
2018-11-10T11:08:59.234Z,101793.23
2018-11-10T11:10:01.867Z,101793.59
2018-11-10T11:11:04.914Z,101790.92
2018-11-10T11:12:07.562Z,101786.54
2018-11-10T11:13:10.222Z,101791.89
2018-11-10T11:14:12.889Z,101790.05
2018-11-10T11:15:15.615Z,101790.19
2018-11-10T11:16:18.630Z,101794.20
2018-11-10T11:17:21.289Z,101794.57
2018-11-10T11:18:23.940Z,101797.86
2018-11-10T11:19:26.598Z,101793.84
2018-11-10T11:20:29.241Z,101794.81
2018-11-10T11:21:32.278Z,101788.12
2018-11-10T11:22:34.914Z,101791.78
2018-11-10T11:23:37.551Z,101791.41
2018-11-10T11:24:40.198Z,101786.16
2018-11-10T11:25:42.858Z,101784.97
2018-11-10T11:26:45.790Z,101790.32
2018-11-10T11:27:48.430Z,101787.75
2018-11-10T11:28:51.078Z,101787.75
2018-11-10T11:29:53.788Z,101787.52
2018-11-10T11:30:56.478Z,101790.20
2018-11-10T11:31:59.587Z,101789.44
2018-11-10T11:33:02.262Z,101786.40
2018-11-10T11:34:05.270Z,101782.02
2018-11-10T11:35:09.453Z,101785.67
2018-11-10T11:36:12.326Z,101789.69
2018-11-10T11:37:14.981Z,101787.98
2018-11-10T11:38:17.627Z,101790.30
2018-11-10T11:39:20.334Z,101785.91
2018-11-10T11:40:22.970Z,101782.87
2018-11-10T11:41:25.690Z,101784.72
2018-11-10T11:42:28.597Z,101784.83
2018-11-10T11:43:31.258Z,101778.64
2018-11-10T11:44:33.904Z,101785.80
2018-11-10T11:45:36.550Z,101782.75
2018-11-10T11:46:39.194Z,101782.39
2018-11-10T11:47:42.886Z,101775.84
2018-11-10T11:48:45.535Z,101774.98
2018-11-10T11:49:48.358Z,101775.95
2018-11-10T11:50:51.038Z,101776.45
2018-11-10T11:51:53.682Z,101772.08
2018-11-10T11:52:56.318Z,101770.38
2018-11-10T11:53:58.959Z,101774.12
2018-11-10T11:55:01.635Z,101773.16
2018-11-10T11:56:04.534Z,101773.16
2018-11-10T11:57:07.182Z,101774.12